sensor_id;sensor_type;location;lat;lon;timestamp;P1;durP1;ratioP1;P2;durP2;ratioP2
17384;SDS011;8810;48.680;8.894;2022-11-11T00:00:57;3.57;;;2.40;;
17384;SDS011;8810;48.680;8.894;2022-11-11T00:03:25;3.90;;;2.53;;
17384;SDS011;8810;48.680;8.894;2022-11-11T00:05:51;4.93;;;2.80;;
17384;SDS011;8810;48.680;8.894;2022-11-11T00:08:18;5.37;;;2.70;;
17384;SDS011;8810;48.680;8.894;2022-11-11T00:10:47;6.43;;;2.67;;
17384;SDS011;8810;48.680;8.894;2022-11-11T00:13:13;4.87;;;2.93;;
17384;SDS011;8810;48.680;8.894;2022-11-11T00:15:40;3.73;;;2.57;;
17384;SDS011;8810;48.680;8.894;2022-11-11T00:18:08;4.30;;;2.17;;
17384;SDS011;8810;48.680;8.894;2022-11-11T00:20:56;4.53;;;2.40;;
17384;SDS011;8810;48.680;8.894;2022-11-11T00:23:41;4.00;;;2.60;;
17384;SDS011;8810;48.680;8.894;2022-11-11T00:26:26;3.33;;;2.43;;
17384;SDS011;8810;48.680;8.894;2022-11-11T00:28:53;4.47;;;2.57;;
17384;SDS011;8810;48.680;8.894;2022-11-11T00:31:20;3.57;;;2.17;;
17384;SDS011;8810;48.680;8.894;2022-11-11T00:33:47;4.40;;;2.23;;
17384;SDS011;8810;48.680;8.894;2022-11-11T00:36:14;4.07;;;2.30;;
17384;SDS011;8810;48.680;8.894;2022-11-11T00:38:40;2.60;;;2.03;;
17384;SDS011;8810;48.680;8.894;2022-11-11T00:41:14;3.73;;;2.50;;
17384;SDS011;8810;48.680;8.894;2022-11-11T00:43:43;3.80;;;2.20;;
17384;SDS011;8810;48.680;8.894;2022-11-11T00:46:11;3.60;;;2.07;;
17384;SDS011;8810;48.680;8.894;2022-11-11T00:48:56;4.47;;;2.33;;
17384;SDS011;8810;48.680;8.894;2022-11-11T00:51:40;4.53;;;2.00;;
17384;SDS011;8810;48.680;8.894;2022-11-11T00:54:07;6.10;;;3.40;;
17384;SDS011;8810;48.680;8.894;2022-11-11T00:56:34;3.30;;;2.43;;
17384;SDS011;8810;48.680;8.894;2022-11-11T00:59:03;3.77;;;2.13;;
17384;SDS011;8810;48.680;8.894;2022-11-11T01:01:31;5.27;;;2.47;;
17384;SDS011;8810;48.680;8.894;2022-11-11T01:03:58;4.03;;;2.57;;
17384;SDS011;8810;48.680;8.894;2022-11-11T01:06:25;5.20;;;1.93;;
17384;SDS011;8810;48.680;8.894;2022-11-11T01:08:52;3.07;;;2.07;;
17384;SDS011;8810;48.680;8.894;2022-11-11T01:11:19;6.47;;;2.03;;
17384;SDS011;8810;48.680;8.894;2022-11-11T01:13:47;2.57;;;1.57;;
17384;SDS011;8810;48.680;8.894;2022-11-11T01:16:17;4.20;;;2.10;;
17384;SDS011;8810;48.680;8.894;2022-11-11T01:18:48;3.00;;;1.97;;
17384;SDS011;8810;48.680;8.894;2022-11-11T01:21:16;2.83;;;1.57;;
17384;SDS011;8810;48.680;8.894;2022-11-11T01:23:44;4.07;;;2.10;;
17384;SDS011;8810;48.680;8.894;2022-11-11T01:26:13;5.83;;;1.83;;
17384;SDS011;8810;48.680;8.894;2022-11-11T01:28:42;2.37;;;1.70;;
17384;SDS011;8810;48.680;8.894;2022-11-11T01:31:10;4.17;;;1.73;;
17384;SDS011;8810;48.680;8.894;2022-11-11T01:33:41;2.77;;;1.70;;
17384;SDS011;8810;48.680;8.894;2022-11-11T01:36:09;3.00;;;2.07;;
17384;SDS011;8810;48.680;8.894;2022-11-11T01:38:38;4.37;;;2.63;;
17384;SDS011;8810;48.680;8.894;2022-11-11T01:41:07;3.43;;;2.13;;
17384;SDS011;8810;48.680;8.894;2022-11-11T01:43:55;4.43;;;2.00;;
17384;SDS011;8810;48.680;8.894;2022-11-11T01:46:27;3.37;;;2.30;;
17384;SDS011;8810;48.680;8.894;2022-11-11T01:49:01;2.83;;;2.00;;
17384;SDS011;8810;48.680;8.894;2022-11-11T01:51:48;2.27;;;1.93;;
17384;SDS011;8810;48.680;8.894;2022-11-11T01:54:20;2.77;;;1.90;;
17384;SDS011;8810;48.680;8.894;2022-11-11T01:56:52;2.53;;;1.63;;
17384;SDS011;8810;48.680;8.894;2022-11-11T01:59:24;2.97;;;1.83;;
17384;SDS011;8810;48.680;8.894;2022-11-11T02:01:53;3.47;;;1.70;;
17384;SDS011;8810;48.680;8.894;2022-11-11T02:04:21;1.80;;;1.70;;
17384;SDS011;8810;48.680;8.894;2022-11-11T02:07:06;2.23;;;1.80;;
17384;SDS011;8810;48.680;8.894;2022-11-11T02:09:35;2.63;;;1.50;;
17384;SDS011;8810;48.680;8.894;2022-11-11T02:12:07;3.57;;;1.90;;
17384;SDS011;8810;48.680;8.894;2022-11-11T02:15:01;3.80;;;2.10;;
17384;SDS011;8810;48.680;8.894;2022-11-11T02:17:31;2.40;;;1.80;;
17384;SDS011;8810;48.680;8.894;2022-11-11T02:20:00;2.33;;;1.70;;
17384;SDS011;8810;48.680;8.894;2022-11-11T02:22:30;2.13;;;1.67;;
17384;SDS011;8810;48.680;8.894;2022-11-11T02:25:06;3.03;;;1.97;;
17384;SDS011;8810;48.680;8.894;2022-11-11T02:27:37;3.37;;;2.07;;
17384;SDS011;8810;48.680;8.894;2022-11-11T02:30:07;3.37;;;1.60;;
17384;SDS011;8810;48.680;8.894;2022-11-11T02:32:40;2.57;;;1.63;;
17384;SDS011;8810;48.680;8.894;2022-11-11T02:35:11;2.63;;;1.77;;
17384;SDS011;8810;48.680;8.894;2022-11-11T02:37:40;2.67;;;1.90;;
17384;SDS011;8810;48.680;8.894;2022-11-11T02:40:11;3.00;;;1.87;;
17384;SDS011;8810;48.680;8.894;2022-11-11T02:42:39;2.93;;;1.60;;
17384;SDS011;8810;48.680;8.894;2022-11-11T02:45:07;3.33;;;2.00;;
17384;SDS011;8810;48.680;8.894;2022-11-11T02:47:34;4.53;;;1.63;;
17384;SDS011;8810;48.680;8.894;2022-11-11T02:50:01;3.00;;;1.80;;
17384;SDS011;8810;48.680;8.894;2022-11-11T02:52:28;3.57;;;1.90;;
17384;SDS011;8810;48.680;8.894;2022-11-11T02:54:55;3.20;;;1.80;;
17384;SDS011;8810;48.680;8.894;2022-11-11T02:57:23;3.10;;;1.90;;
17384;SDS011;8810;48.680;8.894;2022-11-11T02:59:50;2.50;;;1.80;;
17384;SDS011;8810;48.680;8.894;2022-11-11T03:02:17;4.37;;;1.87;;
17384;SDS011;8810;48.680;8.894;2022-11-11T03:04:43;5.50;;;2.50;;
17384;SDS011;8810;48.680;8.894;2022-11-11T03:07:10;2.50;;;1.80;;
17384;SDS011;8810;48.680;8.894;2022-11-11T03:09:37;3.67;;;2.17;;
17384;SDS011;8810;48.680;8.894;2022-11-11T03:12:04;3.67;;;2.00;;
17384;SDS011;8810;48.680;8.894;2022-11-11T03:14:32;2.33;;;1.87;;
17384;SDS011;8810;48.680;8.894;2022-11-11T03:16:59;3.90;;;2.00;;
17384;SDS011;8810;48.680;8.894;2022-11-11T03:19:43;3.83;;;2.30;;
17384;SDS011;8810;48.680;8.894;2022-11-11T03:22:10;3.33;;;1.90;;
17384;SDS011;8810;48.680;8.894;2022-11-11T03:24:35;3.13;;;2.00;;
17384;SDS011;8810;48.680;8.894;2022-11-11T03:27:20;4.37;;;2.27;;
17384;SDS011;8810;48.680;8.894;2022-11-11T03:29:48;3.03;;;2.10;;
17384;SDS011;8810;48.680;8.894;2022-11-11T03:32:14;3.40;;;2.43;;
17384;SDS011;8810;48.680;8.894;2022-11-11T03:34:41;4.13;;;2.07;;
17384;SDS011;8810;48.680;8.894;2022-11-11T03:37:08;5.00;;;2.33;;
17384;SDS011;8810;48.680;8.894;2022-11-11T03:39:54;4.20;;;2.17;;
17384;SDS011;8810;48.680;8.894;2022-11-11T03:42:20;3.83;;;2.60;;
17384;SDS011;8810;48.680;8.894;2022-11-11T03:44:49;3.60;;;2.07;;
17384;SDS011;8810;48.680;8.894;2022-11-11T03:47:15;5.47;;;2.37;;
17384;SDS011;8810;48.680;8.894;2022-11-11T03:49:42;5.10;;;2.43;;
17384;SDS011;8810;48.680;8.894;2022-11-11T03:52:11;6.87;;;2.40;;
17384;SDS011;8810;48.680;8.894;2022-11-11T03:54:38;4.20;;;2.40;;
17384;SDS011;8810;48.680;8.894;2022-11-11T03:57:05;3.60;;;2.07;;
17384;SDS011;8810;48.680;8.894;2022-11-11T03:59:50;7.33;;;2.40;;
17384;SDS011;8810;48.680;8.894;2022-11-11T04:02:17;4.43;;;2.37;;
17384;SDS011;8810;48.680;8.894;2022-11-11T04:05:01;4.30;;;2.13;;
17384;SDS011;8810;48.680;8.894;2022-11-11T04:07:46;5.37;;;2.27;;
17384;SDS011;8810;48.680;8.894;2022-11-11T04:10:33;6.17;;;2.23;;
17384;SDS011;8810;48.680;8.894;2022-11-11T04:12:59;6.43;;;2.70;;
17384;SDS011;8810;48.680;8.894;2022-11-11T04:15:45;5.63;;;2.50;;
17384;SDS011;8810;48.680;8.894;2022-11-11T04:18:29;4.87;;;2.33;;
17384;SDS011;8810;48.680;8.894;2022-11-11T04:21:13;4.27;;;2.50;;
17384;SDS011;8810;48.680;8.894;2022-11-11T04:23:57;3.60;;;2.10;;
17384;SDS011;8810;48.680;8.894;2022-11-11T04:26:24;3.07;;;2.13;;
17384;SDS011;8810;48.680;8.894;2022-11-11T04:28:50;3.90;;;2.20;;
17384;SDS011;8810;48.680;8.894;2022-11-11T04:31:36;3.37;;;2.50;;
17384;SDS011;8810;48.680;8.894;2022-11-11T04:34:23;5.00;;;2.40;;
17384;SDS011;8810;48.680;8.894;2022-11-11T04:36:49;4.33;;;2.40;;
17384;SDS011;8810;48.680;8.894;2022-11-11T04:39:16;2.93;;;2.20;;
17384;SDS011;8810;48.680;8.894;2022-11-11T04:42:00;5.03;;;2.73;;
17384;SDS011;8810;48.680;8.894;2022-11-11T04:44:26;3.93;;;2.47;;
17384;SDS011;8810;48.680;8.894;2022-11-11T04:47:12;5.83;;;2.60;;
17384;SDS011;8810;48.680;8.894;2022-11-11T04:49:39;3.77;;;2.30;;
17384;SDS011;8810;48.680;8.894;2022-11-11T04:52:07;5.20;;;2.03;;
17384;SDS011;8810;48.680;8.894;2022-11-11T04:54:54;6.87;;;2.40;;
17384;SDS011;8810;48.680;8.894;2022-11-11T04:57:40;4.97;;;2.80;;
17384;SDS011;8810;48.680;8.894;2022-11-11T05:00:08;14.40;;;6.47;;
17384;SDS011;8810;48.680;8.894;2022-11-11T05:02:38;13.07;;;5.67;;
17384;SDS011;8810;48.680;8.894;2022-11-11T05:05:23;6.63;;;2.80;;
17384;SDS011;8810;48.680;8.894;2022-11-11T05:07:50;3.43;;;2.53;;
17384;SDS011;8810;48.680;8.894;2022-11-11T05:10:34;5.57;;;2.90;;
17384;SDS011;8810;48.680;8.894;2022-11-11T05:13:01;7.23;;;3.47;;
17384;SDS011;8810;48.680;8.894;2022-11-11T05:15:46;4.63;;;2.50;;
17384;SDS011;8810;48.680;8.894;2022-11-11T05:18:31;4.57;;;2.87;;
17384;SDS011;8810;48.680;8.894;2022-11-11T05:21:17;3.77;;;2.57;;
17384;SDS011;8810;48.680;8.894;2022-11-11T05:23:47;3.60;;;2.33;;
17384;SDS011;8810;48.680;8.894;2022-11-11T05:26:32;8.10;;;3.10;;
17384;SDS011;8810;48.680;8.894;2022-11-11T05:28:59;9.87;;;4.53;;
17384;SDS011;8810;48.680;8.894;2022-11-11T05:31:26;7.43;;;3.60;;
17384;SDS011;8810;48.680;8.894;2022-11-11T05:33:54;5.33;;;3.30;;
17384;SDS011;8810;48.680;8.894;2022-11-11T05:36:21;5.00;;;2.50;;
17384;SDS011;8810;48.680;8.894;2022-11-11T05:38:48;6.57;;;2.60;;
17384;SDS011;8810;48.680;8.894;2022-11-11T05:41:15;4.67;;;2.70;;
17384;SDS011;8810;48.680;8.894;2022-11-11T05:43:41;7.10;;;2.90;;
17384;SDS011;8810;48.680;8.894;2022-11-11T05:46:08;5.17;;;2.77;;
17384;SDS011;8810;48.680;8.894;2022-11-11T05:48:35;6.57;;;3.10;;
17384;SDS011;8810;48.680;8.894;2022-11-11T05:51:23;8.30;;;3.70;;
17384;SDS011;8810;48.680;8.894;2022-11-11T05:53:54;7.03;;;3.57;;
17384;SDS011;8810;48.680;8.894;2022-11-11T05:56:22;8.13;;;4.37;;
17384;SDS011;8810;48.680;8.894;2022-11-11T05:58:49;15.30;;;7.37;;
17384;SDS011;8810;48.680;8.894;2022-11-11T06:01:15;15.33;;;7.13;;
17384;SDS011;8810;48.680;8.894;2022-11-11T06:03:42;15.07;;;7.27;;
17384;SDS011;8810;48.680;8.894;2022-11-11T06:06:09;10.23;;;4.80;;
17384;SDS011;8810;48.680;8.894;2022-11-11T06:08:38;13.37;;;4.83;;
17384;SDS011;8810;48.680;8.894;2022-11-11T06:11:04;11.43;;;4.60;;
17384;SDS011;8810;48.680;8.894;2022-11-11T06:13:35;10.63;;;5.00;;
17384;SDS011;8810;48.680;8.894;2022-11-11T06:16:02;7.63;;;3.80;;
17384;SDS011;8810;48.680;8.894;2022-11-11T06:18:29;5.60;;;3.70;;
17384;SDS011;8810;48.680;8.894;2022-11-11T06:20:56;6.83;;;3.67;;
17384;SDS011;8810;48.680;8.894;2022-11-11T06:23:24;6.77;;;3.37;;
17384;SDS011;8810;48.680;8.894;2022-11-11T06:25:53;5.00;;;3.13;;
17384;SDS011;8810;48.680;8.894;2022-11-11T06:28:39;5.83;;;3.10;;
17384;SDS011;8810;48.680;8.894;2022-11-11T06:31:08;5.17;;;2.67;;
17384;SDS011;8810;48.680;8.894;2022-11-11T06:33:36;4.03;;;2.43;;
17384;SDS011;8810;48.680;8.894;2022-11-11T06:36:04;4.33;;;1.90;;
17384;SDS011;8810;48.680;8.894;2022-11-11T06:38:32;5.87;;;3.53;;
17384;SDS011;8810;48.680;8.894;2022-11-11T06:41:00;5.40;;;3.13;;
17384;SDS011;8810;48.680;8.894;2022-11-11T06:43:27;8.90;;;3.87;;
17384;SDS011;8810;48.680;8.894;2022-11-11T06:45:54;5.47;;;3.20;;
17384;SDS011;8810;48.680;8.894;2022-11-11T06:48:22;3.50;;;2.40;;
17384;SDS011;8810;48.680;8.894;2022-11-11T06:50:50;5.30;;;2.87;;
17384;SDS011;8810;48.680;8.894;2022-11-11T06:53:17;4.50;;;2.83;;
17384;SDS011;8810;48.680;8.894;2022-11-11T06:55:45;3.93;;;2.70;;
17384;SDS011;8810;48.680;8.894;2022-11-11T06:58:14;5.87;;;3.50;;
17384;SDS011;8810;48.680;8.894;2022-11-11T07:00:42;8.10;;;3.80;;
17384;SDS011;8810;48.680;8.894;2022-11-11T07:03:11;5.40;;;3.03;;
17384;SDS011;8810;48.680;8.894;2022-11-11T07:05:38;7.97;;;3.30;;
17384;SDS011;8810;48.680;8.894;2022-11-11T07:08:06;5.97;;;3.07;;
17384;SDS011;8810;48.680;8.894;2022-11-11T07:10:36;6.90;;;3.80;;
17384;SDS011;8810;48.680;8.894;2022-11-11T07:13:04;8.80;;;3.67;;
17384;SDS011;8810;48.680;8.894;2022-11-11T07:15:32;5.90;;;3.93;;
17384;SDS011;8810;48.680;8.894;2022-11-11T07:17:59;7.87;;;4.60;;
17384;SDS011;8810;48.680;8.894;2022-11-11T07:20:26;4.97;;;3.40;;
17384;SDS011;8810;48.680;8.894;2022-11-11T07:22:53;4.47;;;2.20;;
17384;SDS011;8810;48.680;8.894;2022-11-11T07:25:20;2.93;;;2.07;;
17384;SDS011;8810;48.680;8.894;2022-11-11T07:27:47;3.73;;;2.47;;
17384;SDS011;8810;48.680;8.894;2022-11-11T07:30:14;5.33;;;2.53;;
17384;SDS011;8810;48.680;8.894;2022-11-11T07:32:46;10.30;;;4.53;;
17384;SDS011;8810;48.680;8.894;2022-11-11T07:35:14;5.30;;;3.73;;
17384;SDS011;8810;48.680;8.894;2022-11-11T07:37:42;4.17;;;2.70;;
17384;SDS011;8810;48.680;8.894;2022-11-11T07:40:10;4.73;;;2.97;;
17384;SDS011;8810;48.680;8.894;2022-11-11T07:42:38;5.07;;;3.20;;
17384;SDS011;8810;48.680;8.894;2022-11-11T07:45:06;6.13;;;3.07;;
17384;SDS011;8810;48.680;8.894;2022-11-11T07:47:34;6.10;;;2.70;;
17384;SDS011;8810;48.680;8.894;2022-11-11T07:50:03;4.50;;;2.67;;
17384;SDS011;8810;48.680;8.894;2022-11-11T07:52:31;12.20;;;2.97;;
17384;SDS011;8810;48.680;8.894;2022-11-11T07:54:58;5.50;;;2.67;;
17384;SDS011;8810;48.680;8.894;2022-11-11T07:57:25;4.60;;;2.77;;
17384;SDS011;8810;48.680;8.894;2022-11-11T07:59:52;7.57;;;3.33;;
17384;SDS011;8810;48.680;8.894;2022-11-11T08:02:19;6.67;;;3.17;;
17384;SDS011;8810;48.680;8.894;2022-11-11T08:04:45;4.90;;;2.90;;
17384;SDS011;8810;48.680;8.894;2022-11-11T08:07:14;4.93;;;2.57;;
17384;SDS011;8810;48.680;8.894;2022-11-11T08:09:40;4.30;;;2.57;;
17384;SDS011;8810;48.680;8.894;2022-11-11T08:12:07;5.20;;;2.83;;
17384;SDS011;8810;48.680;8.894;2022-11-11T08:14:52;3.93;;;2.63;;
17384;SDS011;8810;48.680;8.894;2022-11-11T08:17:18;5.67;;;2.57;;
17384;SDS011;8810;48.680;8.894;2022-11-11T08:19:45;5.80;;;2.37;;
17384;SDS011;8810;48.680;8.894;2022-11-11T08:22:13;4.50;;;2.90;;
17384;SDS011;8810;48.680;8.894;2022-11-11T08:24:40;5.50;;;2.67;;
17384;SDS011;8810;48.680;8.894;2022-11-11T08:27:08;4.07;;;2.80;;
17384;SDS011;8810;48.680;8.894;2022-11-11T08:29:35;6.07;;;3.33;;
17384;SDS011;8810;48.680;8.894;2022-11-11T08:32:02;5.83;;;3.70;;
17384;SDS011;8810;48.680;8.894;2022-11-11T08:34:29;7.83;;;4.10;;
17384;SDS011;8810;48.680;8.894;2022-11-11T08:36:55;7.97;;;4.40;;
17384;SDS011;8810;48.680;8.894;2022-11-11T08:39:24;7.80;;;4.40;;
17384;SDS011;8810;48.680;8.894;2022-11-11T08:41:50;5.33;;;3.90;;
17384;SDS011;8810;48.680;8.894;2022-11-11T08:44:17;11.03;;;4.17;;
17384;SDS011;8810;48.680;8.894;2022-11-11T08:46:44;5.83;;;3.93;;
17384;SDS011;8810;48.680;8.894;2022-11-11T08:49:11;9.80;;;6.17;;
17384;SDS011;8810;48.680;8.894;2022-11-11T08:51:38;8.57;;;4.47;;
17384;SDS011;8810;48.680;8.894;2022-11-11T08:54:05;9.93;;;3.50;;
17384;SDS011;8810;48.680;8.894;2022-11-11T08:56:33;4.37;;;3.30;;
17384;SDS011;8810;48.680;8.894;2022-11-11T08:59:00;4.87;;;3.30;;
17384;SDS011;8810;48.680;8.894;2022-11-11T09:01:27;6.87;;;3.70;;
17384;SDS011;8810;48.680;8.894;2022-11-11T09:03:54;6.23;;;3.50;;
17384;SDS011;8810;48.680;8.894;2022-11-11T09:06:20;5.10;;;3.40;;
17384;SDS011;8810;48.680;8.894;2022-11-11T09:08:47;7.00;;;3.60;;
17384;SDS011;8810;48.680;8.894;2022-11-11T09:11:14;7.73;;;3.87;;
17384;SDS011;8810;48.680;8.894;2022-11-11T09:13:42;5.83;;;3.70;;
17384;SDS011;8810;48.680;8.894;2022-11-11T09:16:09;9.07;;;4.73;;
17384;SDS011;8810;48.680;8.894;2022-11-11T09:18:36;7.43;;;4.83;;
17384;SDS011;8810;48.680;8.894;2022-11-11T09:21:03;8.97;;;4.27;;
17384;SDS011;8810;48.680;8.894;2022-11-11T09:23:30;6.30;;;4.70;;
17384;SDS011;8810;48.680;8.894;2022-11-11T09:25:59;12.07;;;4.83;;
17384;SDS011;8810;48.680;8.894;2022-11-11T09:28:28;6.03;;;4.17;;
17384;SDS011;8810;48.680;8.894;2022-11-11T09:30:57;12.30;;;4.80;;
17384;SDS011;8810;48.680;8.894;2022-11-11T09:33:24;9.03;;;4.30;;
17384;SDS011;8810;48.680;8.894;2022-11-11T09:35:51;10.47;;;4.40;;
17384;SDS011;8810;48.680;8.894;2022-11-11T09:38:18;8.87;;;5.03;;
17384;SDS011;8810;48.680;8.894;2022-11-11T09:40:47;14.40;;;5.53;;
17384;SDS011;8810;48.680;8.894;2022-11-11T09:43:23;13.53;;;5.03;;
17384;SDS011;8810;48.680;8.894;2022-11-11T09:46:04;10.27;;;6.73;;
17384;SDS011;8810;48.680;8.894;2022-11-11T09:49:00;8.53;;;5.07;;
17384;SDS011;8810;48.680;8.894;2022-11-11T09:51:38;7.70;;;4.87;;
17384;SDS011;8810;48.680;8.894;2022-11-11T09:54:11;8.30;;;3.53;;
17384;SDS011;8810;48.680;8.894;2022-11-11T09:56:42;7.67;;;3.70;;
17384;SDS011;8810;48.680;8.894;2022-11-11T09:59:10;6.87;;;3.77;;
17384;SDS011;8810;48.680;8.894;2022-11-11T10:01:43;10.23;;;4.23;;
17384;SDS011;8810;48.680;8.894;2022-11-11T10:04:22;10.20;;;4.17;;
17384;SDS011;8810;48.680;8.894;2022-11-11T10:06:56;5.80;;;3.57;;
17384;SDS011;8810;48.680;8.894;2022-11-11T10:09:28;6.77;;;3.83;;
17384;SDS011;8810;48.680;8.894;2022-11-11T10:12:02;8.43;;;4.37;;
17384;SDS011;8810;48.680;8.894;2022-11-11T10:14:35;9.37;;;5.07;;
17384;SDS011;8810;48.680;8.894;2022-11-11T10:17:07;9.60;;;4.83;;
17384;SDS011;8810;48.680;8.894;2022-11-11T10:19:58;5.93;;;3.93;;
17384;SDS011;8810;48.680;8.894;2022-11-11T10:22:32;8.13;;;3.73;;
17384;SDS011;8810;48.680;8.894;2022-11-11T10:25:05;10.00;;;3.40;;
17384;SDS011;8810;48.680;8.894;2022-11-11T10:27:41;6.97;;;3.70;;
17384;SDS011;8810;48.680;8.894;2022-11-11T10:30:13;8.53;;;4.00;;
17384;SDS011;8810;48.680;8.894;2022-11-11T10:32:46;8.37;;;3.73;;
17384;SDS011;8810;48.680;8.894;2022-11-11T10:35:19;5.70;;;3.63;;
17384;SDS011;8810;48.680;8.894;2022-11-11T10:37:50;7.60;;;3.70;;
17384;SDS011;8810;48.680;8.894;2022-11-11T10:40:27;8.97;;;4.53;;
17384;SDS011;8810;48.680;8.894;2022-11-11T10:42:59;6.63;;;3.77;;
17384;SDS011;8810;48.680;8.894;2022-11-11T10:45:26;5.37;;;3.63;;
17384;SDS011;8810;48.680;8.894;2022-11-11T10:47:59;7.93;;;3.60;;
17384;SDS011;8810;48.680;8.894;2022-11-11T10:50:30;8.93;;;3.27;;
17384;SDS011;8810;48.680;8.894;2022-11-11T10:53:03;9.30;;;3.37;;
17384;SDS011;8810;48.680;8.894;2022-11-11T10:55:38;5.80;;;3.60;;
17384;SDS011;8810;48.680;8.894;2022-11-11T10:58:14;10.93;;;3.90;;
17384;SDS011;8810;48.680;8.894;2022-11-11T11:00:47;6.00;;;4.07;;
17384;SDS011;8810;48.680;8.894;2022-11-11T11:03:20;6.33;;;3.37;;
17384;SDS011;8810;48.680;8.894;2022-11-11T11:05:51;15.97;;;7.53;;
17384;SDS011;8810;48.680;8.894;2022-11-11T11:08:23;8.23;;;4.93;;
17384;SDS011;8810;48.680;8.894;2022-11-11T11:10:54;7.40;;;3.87;;
17384;SDS011;8810;48.680;8.894;2022-11-11T11:13:24;6.17;;;3.20;;
17384;SDS011;8810;48.680;8.894;2022-11-11T11:15:58;11.67;;;4.83;;
17384;SDS011;8810;48.680;8.894;2022-11-11T11:18:31;9.30;;;5.50;;
17384;SDS011;8810;48.680;8.894;2022-11-11T11:20:59;8.83;;;3.40;;
17384;SDS011;8810;48.680;8.894;2022-11-11T11:23:37;5.67;;;2.73;;
17384;SDS011;8810;48.680;8.894;2022-11-11T11:26:05;5.03;;;2.70;;
17384;SDS011;8810;48.680;8.894;2022-11-11T11:28:35;6.57;;;2.40;;
17384;SDS011;8810;48.680;8.894;2022-11-11T11:31:20;5.03;;;2.33;;
17384;SDS011;8810;48.680;8.894;2022-11-11T11:34:02;5.30;;;2.80;;
17384;SDS011;8810;48.680;8.894;2022-11-11T11:36:29;4.53;;;2.70;;
17384;SDS011;8810;48.680;8.894;2022-11-11T11:38:56;3.00;;;2.03;;
17384;SDS011;8810;48.680;8.894;2022-11-11T11:41:35;4.23;;;2.13;;
17384;SDS011;8810;48.680;8.894;2022-11-11T11:44:03;5.93;;;2.20;;
17384;SDS011;8810;48.680;8.894;2022-11-11T11:46:50;4.70;;;2.17;;
17384;SDS011;8810;48.680;8.894;2022-11-11T11:49:24;5.27;;;2.67;;
17384;SDS011;8810;48.680;8.894;2022-11-11T11:52:06;4.33;;;2.67;;
17384;SDS011;8810;48.680;8.894;2022-11-11T11:54:48;5.00;;;2.80;;
17384;SDS011;8810;48.680;8.894;2022-11-11T11:57:24;6.27;;;3.10;;
17384;SDS011;8810;48.680;8.894;2022-11-11T12:00:03;5.63;;;3.00;;
17384;SDS011;8810;48.680;8.894;2022-11-11T12:02:40;5.23;;;2.83;;
17384;SDS011;8810;48.680;8.894;2022-11-11T12:05:25;6.43;;;2.27;;
17384;SDS011;8810;48.680;8.894;2022-11-11T12:08:02;3.30;;;2.27;;
17384;SDS011;8810;48.680;8.894;2022-11-11T12:10:43;4.83;;;2.50;;
17384;SDS011;8810;48.680;8.894;2022-11-11T12:13:17;2.67;;;1.87;;
17384;SDS011;8810;48.680;8.894;2022-11-11T12:15:56;2.43;;;1.80;;
17384;SDS011;8810;48.680;8.894;2022-11-11T12:18:39;3.37;;;1.90;;
17384;SDS011;8810;48.680;8.894;2022-11-11T12:21:18;4.53;;;2.10;;
17384;SDS011;8810;48.680;8.894;2022-11-11T12:23:50;3.10;;;1.83;;
17384;SDS011;8810;48.680;8.894;2022-11-11T12:26:26;6.30;;;1.90;;
17384;SDS011;8810;48.680;8.894;2022-11-11T12:29:05;3.07;;;1.80;;
17384;SDS011;8810;48.680;8.894;2022-11-11T12:31:43;3.40;;;1.90;;
17384;SDS011;8810;48.680;8.894;2022-11-11T12:34:21;3.47;;;1.53;;
17384;SDS011;8810;48.680;8.894;2022-11-11T12:37:04;3.20;;;1.77;;
17384;SDS011;8810;48.680;8.894;2022-11-11T12:39:47;7.13;;;1.70;;
17384;SDS011;8810;48.680;8.894;2022-11-11T12:42:25;4.53;;;2.20;;
17384;SDS011;8810;48.680;8.894;2022-11-11T12:45:01;8.87;;;2.47;;
17384;SDS011;8810;48.680;8.894;2022-11-11T12:47:40;3.07;;;1.87;;
17384;SDS011;8810;48.680;8.894;2022-11-11T12:50:18;4.93;;;2.20;;
17384;SDS011;8810;48.680;8.894;2022-11-11T12:53:03;6.20;;;2.77;;
17384;SDS011;8810;48.680;8.894;2022-11-11T12:55:42;13.37;;;6.37;;
17384;SDS011;8810;48.680;8.894;2022-11-11T12:58:19;4.67;;;2.07;;
17384;SDS011;8810;48.680;8.894;2022-11-11T13:01:01;3.23;;;1.70;;
17384;SDS011;8810;48.680;8.894;2022-11-11T13:03:43;3.53;;;1.38;;
17384;SDS011;8810;48.680;8.894;2022-11-11T13:06:22;2.80;;;1.60;;
17384;SDS011;8810;48.680;8.894;2022-11-11T13:12:00;2.77;;;1.17;;
17384;SDS011;8810;48.680;8.894;2022-11-11T13:14:36;1.43;;;1.30;;
17384;SDS011;8810;48.680;8.894;2022-11-11T13:17:11;3.30;;;1.50;;
17384;SDS011;8810;48.680;8.894;2022-11-11T13:19:40;4.20;;;1.50;;
17384;SDS011;8810;48.680;8.894;2022-11-11T13:22:12;4.73;;;1.43;;
17384;SDS011;8810;48.680;8.894;2022-11-11T13:24:47;2.67;;;1.13;;
17384;SDS011;8810;48.680;8.894;2022-11-11T13:27:15;4.13;;;1.10;;
17384;SDS011;8810;48.680;8.894;2022-11-11T13:30:04;2.23;;;1.20;;
17384;SDS011;8810;48.680;8.894;2022-11-11T13:32:43;3.43;;;1.00;;
17384;SDS011;8810;48.680;8.894;2022-11-11T13:35:18;5.03;;;1.27;;
17384;SDS011;8810;48.680;8.894;2022-11-11T13:37:47;5.67;;;1.93;;
17384;SDS011;8810;48.680;8.894;2022-11-11T13:40:25;7.27;;;1.83;;
17384;SDS011;8810;48.680;8.894;2022-11-11T13:43:02;5.17;;;1.50;;
17384;SDS011;8810;48.680;8.894;2022-11-11T13:45:31;2.93;;;1.90;;
17384;SDS011;8810;48.680;8.894;2022-11-11T13:48:01;7.33;;;1.73;;
17384;SDS011;8810;48.680;8.894;2022-11-11T13:50:30;7.17;;;1.50;;
17384;SDS011;8810;48.680;8.894;2022-11-11T13:53:00;4.97;;;1.67;;
17384;SDS011;8810;48.680;8.894;2022-11-11T13:55:31;4.83;;;2.20;;
17384;SDS011;8810;48.680;8.894;2022-11-11T13:58:01;7.27;;;2.73;;
17384;SDS011;8810;48.680;8.894;2022-11-11T14:00:30;5.10;;;2.40;;
17384;SDS011;8810;48.680;8.894;2022-11-11T14:08:56;6.47;;;1.90;;
17384;SDS011;8810;48.680;8.894;2022-11-11T14:11:30;7.30;;;1.70;;
17384;SDS011;8810;48.680;8.894;2022-11-11T14:14:16;6.40;;;1.60;;
17384;SDS011;8810;48.680;8.894;2022-11-11T14:17:03;6.87;;;1.70;;
17384;SDS011;8810;48.680;8.894;2022-11-11T14:19:38;6.83;;;1.87;;
17384;SDS011;8810;48.680;8.894;2022-11-11T14:22:22;3.33;;;1.70;;
17384;SDS011;8810;48.680;8.894;2022-11-11T14:24:54;7.23;;;2.70;;
17384;SDS011;8810;48.680;8.894;2022-11-11T14:27:36;7.67;;;2.40;;
17384;SDS011;8810;48.680;8.894;2022-11-11T14:30:11;4.50;;;1.93;;
17384;SDS011;8810;48.680;8.894;2022-11-11T14:32:59;3.30;;;1.33;;
17384;SDS011;8810;48.680;8.894;2022-11-11T14:35:32;4.83;;;1.70;;
17384;SDS011;8810;48.680;8.894;2022-11-11T14:38:16;4.60;;;1.70;;
17384;SDS011;8810;48.680;8.894;2022-11-11T14:40:52;8.30;;;1.80;;
17384;SDS011;8810;48.680;8.894;2022-11-11T14:43:36;10.37;;;2.57;;
17384;SDS011;8810;48.680;8.894;2022-11-11T14:46:08;4.33;;;1.77;;
17384;SDS011;8810;48.680;8.894;2022-11-11T14:48:48;4.67;;;1.93;;
17384;SDS011;8810;48.680;8.894;2022-11-11T14:51:39;3.60;;;2.10;;
17384;SDS011;8810;48.680;8.894;2022-11-11T14:54:22;4.63;;;2.10;;
17384;SDS011;8810;48.680;8.894;2022-11-11T14:57:01;9.67;;;2.50;;
17384;SDS011;8810;48.680;8.894;2022-11-11T14:59:34;4.73;;;2.30;;
17384;SDS011;8810;48.680;8.894;2022-11-11T15:02:01;3.47;;;1.90;;
17384;SDS011;8810;48.680;8.894;2022-11-11T15:04:35;4.30;;;1.60;;
17384;SDS011;8810;48.680;8.894;2022-11-11T15:07:03;9.37;;;1.90;;
17384;SDS011;8810;48.680;8.894;2022-11-11T15:09:55;4.90;;;2.27;;
17384;SDS011;8810;48.680;8.894;2022-11-11T15:12:41;5.60;;;3.20;;
17384;SDS011;8810;48.680;8.894;2022-11-11T15:15:20;8.07;;;2.70;;
17384;SDS011;8810;48.680;8.894;2022-11-11T15:17:54;3.43;;;2.07;;
17384;SDS011;8810;48.680;8.894;2022-11-11T15:20:48;7.80;;;2.30;;
17384;SDS011;8810;48.680;8.894;2022-11-11T15:23:24;7.47;;;2.37;;
17384;SDS011;8810;48.680;8.894;2022-11-11T15:25:59;5.17;;;1.90;;
17384;SDS011;8810;48.680;8.894;2022-11-11T15:28:36;7.57;;;2.10;;
17384;SDS011;8810;48.680;8.894;2022-11-11T15:31:26;6.20;;;1.83;;
17384;SDS011;8810;48.680;8.894;2022-11-11T15:34:00;4.50;;;2.10;;
17384;SDS011;8810;48.680;8.894;2022-11-11T15:36:43;3.87;;;2.00;;
17384;SDS011;8810;48.680;8.894;2022-11-11T15:39:17;4.73;;;2.47;;
17384;SDS011;8810;48.680;8.894;2022-11-11T15:41:47;6.97;;;3.33;;